Time;durP1;ratioP1;P1;durP2;ratioP2;P2;SDS_P1;SDS_P2;PMS_P1;PMS_P2;Temp;Humidity;BMP_temperature;BMP_pressure;BME280_temperature;BME280_humidity;BME280_pressure;Samples;Min_cycle;Max_cycle;Signal;HPM_P1;HPM_P2
2022/08/28 00:00:08;;;;;;;13.82;6.85;;;14.00;99.90;;;;;;5104762;27;20100;-66
2022/08/28 00:02:33;;;;;;;19.60;8.20;;;14.10;99.90;;;;;;5101600;28;20039;-66
2022/08/28 00:05:00;;;;;;;18.38;6.38;;;14.10;99.90;;;;;;5102402;28;20549;-66
2022/08/28 00:07:26;;;;;;;18.92;6.50;;;14.10;99.90;;;;;;5105978;28;20067;-66
2022/08/28 00:09:51;;;;;;;16.38;7.18;;;14.00;99.90;;;;;;5089527;28;20071;-66
2022/08/28 00:12:17;;;;;;;17.30;6.03;;;14.00;99.90;;;;;;5090493;28;20404;-65
2022/08/28 00:14:43;;;;;;;7.35;5.88;;;14.00;99.90;;;;;;5106938;28;20039;-66
2022/08/28 00:17:09;;;;;;;17.23;6.90;;;14.00;99.90;;;;;;5095791;28;20047;-65
2022/08/28 00:19:34;;;;;;;16.30;7.13;;;14.00;99.90;;;;;;5106727;28;20050;-65
2022/08/28 00:22:00;;;;;;;11.52;6.72;;;13.90;99.90;;;;;;5109021;28;20039;-65
2022/08/28 00:24:27;;;;;;;13.13;6.70;;;14.00;99.90;;;;;;5083049;28;20044;-66
2022/08/28 00:29:37;;;;;;;17.33;6.32;;;13.90;99.90;;;;;;5100514;28;20051;-65
2022/08/28 00:32:03;;;;;;;13.38;7.13;;;13.90;99.90;;;;;;5108949;27;20523;-65
2022/08/28 00:34:28;;;;;;;11.43;5.80;;;13.90;99.90;;;;;;5106937;27;20046;-66
2022/08/28 00:36:54;;;;;;;24.10;7.53;;;13.90;99.90;;;;;;5106146;28;20126;-66
2022/08/28 00:39:20;;;;;;;15.45;6.63;;;14.00;99.90;;;;;;5103280;27;20102;-66
2022/08/28 00:41:46;;;;;;;14.98;7.05;;;13.90;99.90;;;;;;5100198;27;20062;-66
2022/08/28 00:44:15;;;;;;;16.35;8.27;;;13.90;99.90;;;;;;5097120;28;20044;-65
2022/08/28 00:46:42;;;;;;;12.27;6.20;;;13.90;99.90;;;;;;5104057;27;20043;-65
2022/08/28 00:49:08;;;;;;;12.70;7.13;;;13.90;99.90;;;;;;5098986;27;20071;-65
2022/08/28 00:54:21;;;;;;;16.90;6.45;;;13.80;99.90;;;;;;5096322;28;20051;-65
2022/08/28 00:56:48;;;;;;;14.20;6.40;;;13.80;99.90;;;;;;5087037;28;20445;-65
2022/08/28 00:59:17;;;;;;;14.05;6.22;;;13.80;99.90;;;;;;5101072;28;20442;-66
2022/08/28 01:01:44;;;;;;;;;;;13.80;99.90;;;;;;5106840;27;20059;-66
2022/08/28 01:04:17;;;;;;;15.10;6.55;;;13.80;99.90;;;;;;5104742;28;19980;-65
2022/08/28 01:06:45;;;;;;;20.38;6.90;;;13.70;99.90;;;;;;5094519;27;20378;-65
2022/08/28 01:09:11;;;;;;;11.45;5.85;;;13.80;99.90;;;;;;5111995;27;20039;-65
2022/08/28 01:11:43;;;;;;;14.50;6.68;;;13.80;99.90;;;;;;5105030;27;20051;-66
2022/08/28 01:14:12;;;;;;;17.27;7.35;;;13.80;99.90;;;;;;5104100;28;20039;-65
2022/08/28 01:16:38;;;;;;;14.98;7.07;;;13.70;99.90;;;;;;5090937;28;20143;-66
2022/08/28 01:19:08;;;;;;;12.80;6.22;;;13.70;99.90;;;;;;5108011;27;20427;-66
2022/08/28 01:21:35;;;;;;;19.95;7.45;;;13.70;99.90;;;;;;5107500;28;20075;-66
2022/08/28 01:24:08;;;;;;;11.65;5.78;;;13.70;99.90;;;;;;5103335;28;20119;-65
2022/08/28 01:26:34;;;;;;;11.38;6.18;;;13.70;99.90;;;;;;5107670;27;20512;-66
2022/08/28 01:29:00;;;;;;;16.65;5.93;;;13.60;99.90;;;;;;5088410;28;20046;-66
2022/08/28 01:31:28;;;;;;;16.05;5.72;;;13.60;99.90;;;;;;5106714;28;20043;-66
2022/08/28 01:33:55;;;;;;;19.38;6.05;;;13.60;99.90;;;;;;5107973;28;20057;-66
2022/08/28 01:36:20;;;;;;;9.63;6.35;;;13.50;99.90;;;;;;5106764;27;20103;-66
2022/08/28 01:38:51;;;;;;;16.50;6.10;;;13.50;99.90;;;;;;5106220;28;20040;-66
2022/08/28 01:41:18;;;;;;;15.68;7.15;;;13.50;99.90;;;;;;5100808;27;20032;-66
2022/08/28 01:43:43;;;;;;;12.18;6.38;;;13.50;99.90;;;;;;5105864;28;20140;-66
2022/08/28 01:46:11;;;;;;;16.25;6.07;;;13.40;99.90;;;;;;5105188;28;20079;-66
2022/08/28 01:48:40;;;;;;;12.40;6.32;;;13.50;99.90;;;;;;5100456;28;20058;-65
2022/08/28 01:51:06;;;;;;;18.40;7.80;;;13.50;99.90;;;;;;5105536;28;20047;-66
2022/08/28 01:53:32;;;;;;;13.18;6.85;;;13.50;99.90;;;;;;5100332;28;20507;-66
2022/08/28 01:55:59;;;;;;;14.32;6.03;;;13.40;99.90;;;;;;5087844;28;20485;-65
2022/08/28 01:58:26;;;;;;;16.65;7.57;;;13.40;99.90;;;;;;5104347;28;20039;-65
2022/08/28 02:00:52;;;;;;;15.95;6.57;;;13.30;99.90;;;;;;5105373;28;20055;-65
2022/08/28 02:03:19;;;;;;;9.93;5.68;;;13.30;99.90;;;;;;5106576;28;20035;-65
2022/08/28 02:05:45;;;;;;;13.90;6.57;;;13.30;99.90;;;;;;5086646;28;20070;-65
2022/08/28 02:08:11;;;;;;;14.93;7.03;;;13.30;99.90;;;;;;5105229;28;20058;-65
2022/08/28 02:10:39;;;;;;;10.95;6.22;;;13.30;99.90;;;;;;5101670;28;20036;-65
2022/08/28 02:13:06;;;;;;;12.38;6.68;;;13.20;99.90;;;;;;5082832;28;20051;-65
2022/08/28 02:15:33;;;;;;;9.30;5.55;;;13.20;99.90;;;;;;5088104;28;20031;-66
2022/08/28 02:17:59;;;;;;;13.55;5.97;;;13.10;99.90;;;;;;5098916;28;20048;-65
2022/08/28 02:20:27;;;;;;;9.80;6.90;;;13.10;99.90;;;;;;5090257;28;20514;-65
2022/08/28 02:22:54;;;;;;;15.02;6.63;;;13.10;99.90;;;;;;5101547;28;20051;-65
2022/08/28 02:25:21;;;;;;;10.48;6.38;;;13.00;99.90;;;;;;5105569;28;20105;-66
2022/08/28 02:27:48;;;;;;;12.05;6.63;;;13.00;99.90;;;;;;5087860;28;20036;-65
2022/08/28 02:30:16;;;;;;;11.52;6.43;;;12.90;99.90;;;;;;5086383;28;20066;-65
2022/08/28 02:32:43;;;;;;;14.43;7.15;;;12.90;99.90;;;;;;5107124;28;20077;-65
2022/08/28 02:35:10;;;;;;;17.95;6.70;;;12.90;99.90;;;;;;5090339;28;20058;-66
2022/08/28 02:37:37;;;;;;;10.90;6.25;;;12.90;99.90;;;;;;5105634;28;20046;-66
2022/08/28 02:40:03;;;;;;;18.58;7.15;;;12.80;99.90;;;;;;5101348;28;20110;-65
2022/08/28 02:42:29;;;;;;;10.93;7.15;;;12.80;99.90;;;;;;5105697;28;20048;-65
2022/08/28 02:44:55;;;;;;;17.30;7.00;;;12.70;99.90;;;;;;5087784;28;20039;-65
2022/08/28 02:47:20;;;;;;;14.13;7.22;;;12.80;99.90;;;;;;5105153;28;20097;-66
2022/08/28 02:49:46;;;;;;;11.27;6.18;;;12.70;99.90;;;;;;5103691;28;20048;-65
2022/08/28 02:52:12;;;;;;;13.48;5.82;;;12.70;99.90;;;;;;5107498;28;20028;-65
2022/08/28 02:54:38;;;;;;;15.07;7.68;;;12.70;99.90;;;;;;5111159;28;20043;-65
2022/08/28 02:57:06;;;;;;;12.20;6.22;;;12.70;99.90;;;;;;5110772;28;20381;-66
2022/08/28 02:59:33;;;;;;;13.75;6.82;;;12.70;99.90;;;;;;5092259;28;20089;-66
2022/08/28 03:02:02;;;;;;;10.15;6.35;;;12.60;99.90;;;;;;5108573;28;20047;-65
2022/08/28 03:04:32;;;;;;;11.60;6.63;;;12.60;99.90;;;;;;5106080;27;20443;-65
2022/08/28 03:06:58;;;;;;;10.07;5.95;;;12.60;99.90;;;;;;5078172;28;20050;-65
2022/08/28 03:09:24;;;;;;;11.88;6.07;;;12.50;99.90;;;;;;5104052;28;20047;-65
2022/08/28 03:11:54;;;;;;;11.20;6.57;;;12.50;99.90;;;;;;5108469;28;20415;-65
2022/08/28 03:14:20;;;;;;;11.23;6.30;;;12.50;99.90;;;;;;5070125;28;20040;-66
2022/08/28 03:16:46;;;;;;;14.75;7.10;;;12.50;99.90;;;;;;5090192;28;20100;-66
2022/08/28 03:19:12;;;;;;;18.20;6.88;;;12.40;99.90;;;;;;5091327;28;20059;-66
2022/08/28 03:21:38;;;;;;;11.13;6.85;;;12.40;99.90;;;;;;5101295;27;20113;-66
2022/08/28 03:24:03;;;;;;;11.40;5.90;;;12.40;99.90;;;;;;5110262;28;20501;-66
2022/08/28 03:26:30;;;;;;;17.40;6.22;;;12.40;99.90;;;;;;5110549;27;20042;-66
2022/08/28 03:28:56;;;;;;;14.73;6.22;;;12.40;99.90;;;;;;5111015;27;20039;-66
2022/08/28 03:31:25;;;;;;;20.60;6.57;;;12.40;99.90;;;;;;5106057;28;20149;-66
2022/08/28 03:33:53;;;;;;;11.82;6.75;;;12.40;99.90;;;;;;5088593;28;20562;-65
2022/08/28 03:36:22;;;;;;;15.85;6.43;;;12.30;99.90;;;;;;5097537;28;20051;-66
2022/08/28 03:38:49;;;;;;;18.92;6.60;;;12.30;99.90;;;;;;5106708;27;20044;-66
2022/08/28 03:41:17;;;;;;;10.70;6.82;;;12.30;99.90;;;;;;5109115;28;20040;-66
2022/08/28 03:43:43;;;;;;;;;;;12.30;99.90;;;;;;5110191;28;20048;-66
2022/08/28 03:46:16;;;;;;;19.98;7.50;;;12.20;99.90;;;;;;5107350;28;19946;-66
2022/08/28 03:48:43;;;;;;;16.38;7.15;;;12.20;99.90;;;;;;5111345;28;20039;-66
2022/08/28 03:51:14;;;;;;;11.55;6.55;;;12.20;99.90;;;;;;5107534;28;20512;-66
2022/08/28 03:53:41;;;;;;;11.93;6.13;;;12.20;99.90;;;;;;5110688;27;20055;-66
2022/08/28 03:56:12;;;;;;;9.43;6.18;;;12.20;99.90;;;;;;5104578;28;20068;-66
2022/08/28 03:58:41;;;;;;;8.82;5.93;;;12.20;99.90;;;;;;5107871;27;20039;-65
2022/08/28 04:01:07;;;;;;;15.73;6.30;;;12.20;99.90;;;;;;5108455;28;20420;-66
2022/08/28 04:03:33;;;;;;;17.17;6.97;;;12.20;99.90;;;;;;5090866;28;20040;-66
2022/08/28 04:06:01;;;;;;;20.00;6.47;;;12.20;99.90;;;;;;5091128;28;20053;-66
2022/08/28 04:08:28;;;;;;;11.30;6.07;;;12.20;99.90;;;;;;5062646;28;20040;-66
2022/08/28 04:10:54;;;;;;;9.95;6.43;;;12.20;99.90;;;;;;5087658;28;20059;-66
2022/08/28 04:13:21;;;;;;;10.20;6.68;;;12.10;99.90;;;;;;5109094;28;20098;-65
2022/08/28 04:15:57;;;;;;;13.23;7.55;;;12.20;99.90;;;;;;5091330;28;20194;-65
2022/08/28 04:18:23;;;;;;;11.95;6.50;;;12.10;99.90;;;;;;5105876;27;20039;-65
2022/08/28 04:21:00;;;;;;;8.95;6.55;;;12.10;99.90;;;;;;5108029;28;20070;-65
2022/08/28 04:23:25;;;;;;;16.95;7.22;;;12.10;99.90;;;;;;5081571;28;20054;-65
2022/08/28 04:25:51;;;;;;;15.70;7.88;;;12.10;99.90;;;;;;5087399;28;20040;-65
2022/08/28 04:28:17;;;;;;;16.02;7.53;;;12.00;99.90;;;;;;5081961;28;20116;-65
2022/08/28 04:30:42;;;;;;;12.98;6.25;;;12.00;99.90;;;;;;5082222;28;20071;-65
2022/08/28 04:33:09;;;;;;;23.05;6.88;;;12.00;99.90;;;;;;5109258;28;20043;-65
2022/08/28 04:35:34;;;;;;;14.15;6.72;;;12.10;99.90;;;;;;5102525;27;20617;-65
2022/08/28 04:38:00;;;;;;;11.60;6.25;;;12.00;99.90;;;;;;5079239;28;20126;-65
2022/08/28 04:40:26;;;;;;;14.45;7.20;;;12.00;99.90;;;;;;5109221;28;20069;-65
2022/08/28 04:42:51;;;;;;;8.38;6.32;;;11.90;99.90;;;;;;5100952;28;20089;-65
2022/08/28 04:45:17;;;;;;;18.60;6.80;;;11.90;99.90;;;;;;5103223;27;20039;-65
2022/08/28 04:47:43;;;;;;;20.65;6.15;;;11.90;99.90;;;;;;5090722;28;20046;-65
2022/08/28 04:50:10;;;;;;;9.95;6.90;;;11.90;99.90;;;;;;5107606;27;20043;-65
2022/08/28 04:52:37;;;;;;;14.95;5.82;;;11.90;99.90;;;;;;5109137;28;20070;-65
2022/08/28 04:55:03;;;;;;;17.05;6.75;;;11.90;99.90;;;;;;5109056;28;20040;-65
2022/08/28 04:57:29;;;;;;;10.15;6.00;;;11.80;99.90;;;;;;5108572;28;20048;-65
2022/08/28 04:59:57;;;;;;;14.25;7.35;;;11.80;99.90;;;;;;5104987;28;20086;-65
2022/08/28 05:02:23;;;;;;;12.57;6.75;;;11.80;99.90;;;;;;5108699;27;20054;-65
2022/08/28 05:04:50;;;;;;;13.10;6.70;;;11.80;99.90;;;;;;5108095;27;20036;-65
2022/08/28 05:07:15;;;;;;;11.60;6.38;;;11.80;99.90;;;;;;5101440;28;20412;-65
2022/08/28 05:09:41;;;;;;;13.32;6.80;;;12.00;99.90;;;;;;5100491;28;20050;-64
2022/08/28 05:12:07;;;;;;;11.70;6.03;;;12.20;99.90;;;;;;5082623;28;20035;-65
2022/08/28 05:14:32;;;;;;;9.43;5.60;;;12.40;99.90;;;;;;5102243;28;20043;-66
2022/08/28 05:16:58;;;;;;;9.48;6.10;;;12.70;99.90;;;;;;5082167;28;20420;-65
2022/08/28 05:19:26;;;;;;;9.32;5.45;;;12.90;99.90;;;;;;5088594;28;20445;-65
2022/08/28 05:21:53;;;;;;;19.13;7.28;;;13.10;99.90;;;;;;5099542;28;20043;-66
2022/08/28 05:24:20;;;;;;;11.82;5.85;;;13.40;99.90;;;;;;5090381;28;20088;-66
2022/08/28 05:26:46;;;;;;;12.65;5.65;;;13.50;99.90;;;;;;5101080;28;20061;-66
2022/08/28 05:29:12;;;;;;;13.27;6.03;;;13.60;99.90;;;;;;5080804;28;20044;-66
2022/08/28 05:31:39;;;;;;;8.20;5.90;;;13.70;99.90;;;;;;5106392;28;20045;-65
2022/08/28 05:34:06;;;;;;;7.15;4.55;;;13.80;99.90;;;;;;5101327;28;20044;-66
2022/08/28 05:36:33;;;;;;;19.15;5.65;;;14.00;99.90;;;;;;5100825;28;20066;-66
2022/08/28 05:39:04;;;;;;;10.77;5.22;;;14.00;99.90;;;;;;5101193;27;20048;-66
2022/08/28 05:41:31;;;;;;;8.73;5.20;;;13.90;99.90;;;;;;5100530;28;20100;-65
2022/08/28 05:43:59;;;;;;;18.40;6.32;;;13.90;99.90;;;;;;5083811;28;20412;-65
2022/08/28 05:46:26;;;;;;;15.65;5.70;;;13.80;99.90;;;;;;5099936;28;20036;-66
2022/08/28 05:48:53;;;;;;;9.77;5.03;;;13.80;99.90;;;;;;5081078;28;20051;-66
2022/08/28 05:51:21;;;;;;;12.45;5.05;;;13.80;99.90;;;;;;5100042;28;20039;-66
2022/08/28 05:53:48;;;;;;;10.13;4.93;;;13.70;99.90;;;;;;5099245;28;20552;-66
2022/08/28 05:56:18;;;;;;;8.70;4.85;;;13.70;99.90;;;;;;5099880;28;20078;-66
2022/08/28 05:58:43;;;;;;;14.82;5.80;;;13.70;99.90;;;;;;5100228;28;20039;-66
2022/08/28 06:01:16;;;;;;;10.38;5.30;;;13.70;99.90;;;;;;5100043;27;21652;-66
2022/08/28 06:03:44;;;;;;;11.98;5.57;;;13.70;99.90;;;;;;5100496;28;20035;-66
2022/08/28 06:06:11;;;;;;;13.07;5.78;;;13.70;99.90;;;;;;5104722;28;20050;-66
2022/08/28 06:08:38;;;;;;;11.60;6.30;;;13.60;99.90;;;;;;5106854;28;20047;-66
2022/08/28 06:11:06;;;;;;;8.32;5.35;;;13.70;99.90;;;;;;5100115;28;20039;-66
2022/08/28 06:13:33;;;;;;;13.05;6.57;;;13.70;99.90;;;;;;5100699;28;20040;-66
2022/08/28 06:15:58;;;;;;;11.52;5.28;;;13.80;99.90;;;;;;5099869;28;20065;-66
2022/08/28 06:18:25;;;;;;;16.45;5.55;;;13.80;99.90;;;;;;5100116;28;20054;-66
2022/08/28 06:20:52;;;;;;;14.27;5.65;;;13.90;99.90;;;;;;5104344;28;20039;-66
2022/08/28 06:23:20;;;;;;;11.63;6.13;;;13.90;99.90;;;;;;5096313;28;20044;-66
2022/08/28 06:25:48;;;;;;;9.95;5.45;;;13.90;99.90;;;;;;5098228;28;20044;-66
2022/08/28 06:28:17;;;;;;;15.35;5.18;;;14.00;99.90;;;;;;5087673;28;20404;-66
2022/08/28 06:30:43;;;;;;;10.60;5.03;;;14.00;99.90;;;;;;5081611;28;20135;-66
2022/08/28 06:33:11;;;;;;;13.13;5.80;;;14.10;99.90;;;;;;5102981;28;20134;-66
2022/08/28 06:35:41;;;;;;;15.07;6.00;;;14.10;99.90;;;;;;5101171;28;20051;-66
2022/08/28 06:38:07;;;;;;;9.23;4.72;;;14.10;99.90;;;;;;5098831;28;20050;-66
2022/08/28 06:40:39;;;;;;;22.88;6.25;;;14.20;99.90;;;;;;5079267;28;20067;-66
2022/08/28 06:43:04;;;;;;;13.25;4.85;;;14.30;99.90;;;;;;5080910;28;20058;-66
2022/08/28 06:45:30;;;;;;;9.85;5.53;;;14.30;99.90;;;;;;5101935;28;20460;-66
2022/08/28 06:47:57;;;;;;;13.65;3.67;;;14.40;99.90;;;;;;5099100;28;20075;-66
2022/08/28 06:50:23;;;;;;;13.27;4.60;;;14.50;99.90;;;;;;5103784;28;20039;-66
2022/08/28 06:52:49;;;;;;;12.02;3.75;;;14.60;99.90;;;;;;5087031;28;20663;-66
2022/08/28 06:55:15;;;;;;;9.48;4.22;;;14.70;99.90;;;;;;5071329;28;20043;-66
2022/08/28 06:57:42;;;;;;;8.05;3.40;;;14.90;99.90;;;;;;5085729;28;20127;-67
2022/08/28 07:00:08;;;;;;;12.02;4.05;;;15.20;99.90;;;;;;5102314;28;20795;-66
2022/08/28 07:02:33;;;;;;;8.52;3.80;;;15.50;99.90;;;;;;5093356;28;20050;-66
2022/08/28 07:04:59;;;;;;;10.95;4.03;;;15.80;99.90;;;;;;5102180;28;20040;-66
2022/08/28 07:07:25;;;;;;;15.20;4.45;;;16.20;99.90;;;;;;5099455;28;20508;-66
2022/08/28 07:09:52;;;;;;;7.95;4.70;;;16.60;99.90;;;;;;5097885;28;20118;-66
2022/08/28 07:12:18;;;;;;;10.60;3.50;;;17.00;99.90;;;;;;5100419;28;20050;-66
2022/08/28 07:14:44;;;;;;;8.43;3.60;;;17.30;99.90;;;;;;5102739;28;20039;-66
2022/08/28 07:17:10;;;;;;;12.00;3.33;;;17.70;99.90;;;;;;5105810;28;20490;-67
2022/08/28 07:19:36;;;;;;;10.73;2.90;;;18.10;99.90;;;;;;5106240;28;20592;-66
2022/08/28 07:22:03;;;;;;;10.02;3.95;;;18.40;99.90;;;;;;5105801;28;20040;-66
2022/08/28 07:24:29;;;;;;;10.07;3.58;;;18.70;99.90;;;;;;5089309;28;20082;-66
2022/08/28 07:26:55;;;;;;;17.02;4.35;;;19.00;99.90;;;;;;5095474;28;20071;-66
2022/08/28 07:29:21;;;;;;;9.00;3.90;;;19.30;99.90;;;;;;5075888;28;20056;-66
2022/08/28 07:31:52;;;;;;;12.57;3.65;;;19.50;99.90;;;;;;5094654;28;20039;-66
2022/08/28 07:34:19;;;;;;;9.73;3.85;;;19.70;99.90;;;;;;5102904;28;20124;-66
2022/08/28 07:36:45;;;;;;;;;;;20.00;99.90;;;;;;5103703;28;20039;-66
2022/08/28 07:39:13;;;;;;;13.65;3.83;;;20.20;99.90;;;;;;5100304;28;19928;-67
2022/08/28 07:41:41;;;;;;;;;;;20.50;99.90;;;;;;5106426;28;20043;-67
2022/08/28 07:47:13;;;;;;;7.35;3.03;;;20.80;99.90;;;;;;5018059;28;20469;-66
2022/08/28 07:49:40;;;;;;;14.90;3.22;;;21.20;99.90;;;;;;5021206;28;20037;-67
2022/08/28 07:52:07;;;;;;;10.43;2.75;;;21.10;99.90;;;;;;5052403;27;20146;-66
2022/08/28 07:54:34;;;;;;;7.10;3.30;;;21.20;99.90;;;;;;5112369;27;20057;-66
2022/08/28 07:57:02;;;;;;;12.45;3.88;;;21.20;99.90;;;;;;5106578;28;20089;-66
2022/08/28 07:59:28;;;;;;;7.75;2.70;;;21.10;99.90;;;;;;5105598;28;20035;-66
2022/08/28 08:01:54;;;;;;;5.53;3.08;;;21.10;99.90;;;;;;5089970;28;20048;-66
2022/08/28 08:04:22;;;;;;;8.00;2.90;;;20.90;99.90;;;;;;5083652;28;20039;-66
2022/08/28 08:06:50;;;;;;;;;;;20.50;99.90;;;;;;5104683;28;20039;-66
2022/08/28 08:09:17;;;;;;;;;;;20.70;99.90;;;;;;5109269;28;20237;-66
2022/08/28 08:11:43;;;;;;;6.07;3.40;;;20.60;99.90;;;;;;5089322;28;19958;-67
2022/08/28 08:14:10;;;;;;;13.18;3.80;;;21.00;99.90;;;;;;5089194;28;20085;-66
2022/08/28 08:16:42;;;;;;;15.45;3.22;;;21.20;99.90;;;;;;5090224;28;20062;-66
2022/08/28 08:19:12;;;;;;;4.20;2.88;;;21.40;99.50;;;;;;5107553;28;20568;-66
2022/08/28 08:21:39;;;;;;;6.13;2.90;;;21.70;99.20;;;;;;5109632;28;20050;-66
2022/08/28 08:24:05;;;;;;;9.88;3.72;;;21.60;97.00;;;;;;5103563;28;20488;-67
2022/08/28 08:26:31;;;;;;;8.10;3.35;;;21.40;96.50;;;;;;5107990;28;20099;-65
2022/08/28 08:28:58;;;;;;;9.15;2.75;;;21.40;95.00;;;;;;5109015;27;20046;-64
2022/08/28 08:31:27;;;;;;;10.43;3.40;;;21.60;96.10;;;;;;5091446;28;20048;-65
2022/08/28 08:33:56;;;;;;;8.43;3.20;;;21.80;94.70;;;;;;5108091;28;20059;-64
2022/08/28 08:36:23;;;;;;;7.20;3.22;;;22.00;93.20;;;;;;5091062;28;20066;-64
2022/08/28 08:38:50;;;;;;;10.57;3.40;;;22.20;93.50;;;;;;5109841;28;20062;-64
2022/08/28 08:41:38;;;;;;;6.32;2.35;;;22.30;90.90;;;;;;5105836;28;20573;-64
2022/08/28 08:44:23;;;;;;;6.50;3.25;;;22.40;84.10;;;;;;5104248;28;20485;-64
2022/08/28 08:47:10;;;;;;;8.18;3.22;;;22.70;86.30;;;;;;5108435;28;20039;-64
2022/08/28 08:49:51;;;;;;;9.98;3.83;;;22.70;85.80;;;;;;5107437;28;20047;-64
2022/08/28 08:52:33;;;;;;;14.75;3.22;;;22.30;85.80;;;;;;5107462;28;20047;-64
2022/08/28 08:55:20;;;;;;;5.32;3.45;;;22.00;80.60;;;;;;5109643;27;20039;-64
2022/08/28 08:57:59;;;;;;;7.82;3.25;;;22.00;77.80;;;;;;5108948;28;20778;-64
2022/08/28 09:00:25;;;;;;;8.80;2.85;;;22.30;81.30;;;;;;5106025;28;20051;-64
2022/08/28 09:03:03;;;;;;;8.50;3.15;;;22.20;80.90;;;;;;5104576;28;20487;-64
2022/08/28 09:05:53;;;;;;;18.55;3.42;;;22.00;77.40;;;;;;5105489;28;20412;-64
2022/08/28 09:08:43;;;;;;;9.35;3.85;;;21.60;77.40;;;;;;5108300;28;20043;-64
2022/08/28 09:11:35;;;;;;;8.75;3.60;;;21.60;80.40;;;;;;5102281;28;20039;-65
2022/08/28 09:14:24;;;;;;;17.00;4.00;;;21.60;78.30;;;;;;5110142;28;20115;-65
2022/08/28 09:16:51;;;;;;;5.85;3.55;;;21.80;81.20;;;;;;5107903;28;20055;-64
2022/08/28 09:19:19;;;;;;;12.00;3.67;;;22.10;80.10;;;;;;5109102;27;20044;-64
2022/08/28 09:21:47;;;;;;;4.93;2.97;;;22.10;79.10;;;;;;5107284;27;20035;-64
2022/08/28 09:24:27;;;;;;;;;;;22.20;77.00;;;;;;5108716;28;20111;-64
2022/08/28 09:26:57;;;;;;;18.60;3.92;;;22.40;75.10;;;;;;5106576;28;19973;-64
2022/08/28 09:29:27;;;;;;;11.80;4.30;;;22.40;75.30;;;;;;5103238;28;20412;-64
2022/08/28 09:31:53;;;;;;;13.18;4.85;;;22.20;76.00;;;;;;5109352;28;20035;-64
2022/08/28 09:34:24;;;;;;;9.23;3.60;;;22.20;75.70;;;;;;5105369;28;20036;-64
2022/08/28 09:36:52;;;;;;;5.05;3.13;;;22.00;76.90;;;;;;5105515;28;20056;-64
2022/08/28 09:39:22;;;;;;;9.82;3.80;;;21.80;78.90;;;;;;5106164;27;20075;-64
2022/08/28 09:44:54;;;;;;;11.82;3.67;;;21.40;80.20;;;;;;5105783;28;20048;-64
2022/08/28 09:47:41;;;;;;;13.20;4.25;;;21.60;81.30;;;;;;5106418;28;20048;-64
2022/08/28 09:50:25;;;;;;;8.60;4.05;;;22.10;80.80;;;;;;5104980;28;20091;-64
2022/08/28 09:52:54;;;;;;;8.30;2.90;;;22.40;77.90;;;;;;5106296;28;20117;-64
2022/08/28 09:55:44;;;;;;;6.03;3.72;;;22.20;77.40;;;;;;5105215;28;20788;-64
2022/08/28 09:58:10;;;;;;;12.25;3.40;;;22.00;76.10;;;;;;5108059;27;20051;-64
2022/08/28 10:00:41;;;;;;;11.93;3.88;;;21.90;78.00;;;;;;5101172;28;20551;-64
2022/08/28 10:03:13;;;;;;;11.38;3.95;;;21.90;80.30;;;;;;5099328;28;20079;-64
2022/08/28 10:05:53;;;;;;;6.70;3.63;;;22.00;79.30;;;;;;5107464;28;20415;-64
2022/08/28 10:08:38;;;;;;;10.05;4.45;;;22.30;78.40;;;;;;5104890;28;20079;-64
2022/08/28 10:11:24;;;;;;;9.20;3.35;;;22.60;77.60;;;;;;5089348;28;20048;-64
2022/08/28 10:14:18;;;;;;;6.78;3.85;;;23.00;74.00;;;;;;5087325;28;20056;-64
2022/08/28 10:16:55;;;;;;;7.45;3.33;;;23.00;71.30;;;;;;5105459;28;20047;-64
2022/08/28 10:19:41;;;;;;;6.57;3.87;;;22.80;70.30;;;;;;5071928;28;20071;-64
2022/08/28 10:22:25;;;;;;;15.32;3.25;;;22.80;73.40;;;;;;5087604;28;20042;-64
2022/08/28 10:25:06;;;;;;;9.32;3.63;;;22.40;71.30;;;;;;5104669;27;20055;-64
2022/08/28 10:27:47;;;;;;;11.77;3.92;;;22.20;71.70;;;;;;5107120;28;20042;-63
2022/08/28 10:30:19;;;;;;;18.25;4.28;;;22.30;72.90;;;;;;5107478;28;20057;-64
2022/08/28 10:33:06;;;;;;;9.18;3.85;;;22.60;75.20;;;;;;5109780;28;20032;-64
2022/08/28 10:35:37;;;;;;;9.07;4.15;;;22.80;74.00;;;;;;5106212;28;20093;-64
2022/08/28 10:38:15;;;;;;;9.30;3.55;;;22.60;72.80;;;;;;5089066;28;20051;-64
2022/08/28 10:41:02;;;;;;;13.27;5.32;;;22.50;69.60;;;;;;5103128;28;20048;-64
2022/08/28 10:43:47;;;;;;;8.40;4.30;;;22.60;67.80;;;;;;5104466;28;20043;-64
2022/08/28 10:46:22;;;;;;;10.73;3.92;;;22.60;67.90;;;;;;5079583;28;20378;-64
2022/08/28 10:48:54;;;;;;;7.88;3.55;;;22.90;69.80;;;;;;5103711;28;20104;-64
2022/08/28 10:51:54;;;;;;;12.60;4.85;;;23.20;68.90;;;;;;5106653;28;20083;-65
2022/08/28 10:54:44;;;;;;;8.57;3.33;;;23.20;66.00;;;;;;5104580;28;20127;-64
2022/08/28 10:57:52;;;;;;;6.90;3.55;;;23.30;65.80;;;;;;5103959;28;20096;-64
2022/08/28 11:00:21;;;;;;;12.43;3.42;;;23.50;64.50;;;;;;5092314;28;20519;-64
2022/08/28 11:03:01;;;;;;;13.77;3.60;;;23.30;66.50;;;;;;5103126;28;20081;-65
2022/08/28 11:05:50;;;;;;;9.60;3.97;;;23.00;66.60;;;;;;5084100;28;20044;-65
2022/08/28 11:08:31;;;;;;;11.45;4.93;;;22.70;67.50;;;;;;5104477;28;20138;-66
2022/08/28 11:11:02;;;;;;;12.77;3.38;;;22.60;64.30;;;;;;5104197;28;20047;-66
2022/08/28 11:14:00;;;;;;;9.50;3.47;;;22.90;65.30;;;;;;5087657;28;20097;-66
2022/08/28 11:16:29;;;;;;;5.50;3.05;;;23.20;65.20;;;;;;5105756;27;20416;-66
2022/08/28 11:19:23;;;;;;;13.35;3.55;;;23.50;65.20;;;;;;5109169;28;20051;-65
2022/08/28 11:21:54;;;;;;;9.38;3.35;;;23.70;63.70;;;;;;5108213;27;20048;-65
2022/08/28 11:24:20;;;;;;;9.48;3.55;;;24.00;64.10;;;;;;5109765;28;20223;-65
2022/08/28 11:27:15;;;;;;;8.75;3.83;;;24.00;61.50;;;;;;5108126;27;20055;-66
2022/08/28 11:30:02;;;;;;;13.80;3.95;;;23.70;58.10;;;;;;5107621;27;20100;-65
2022/08/28 11:32:34;;;;;;;11.05;3.10;;;23.60;59.80;;;;;;5105802;28;20039;-65
2022/08/28 11:35:11;;;;;;;7.35;2.95;;;23.40;60.20;;;;;;5105197;28;20057;-65
2022/08/28 11:37:44;;;;;;;7.28;3.30;;;23.40;59.50;;;;;;5104768;28;20035;-65
2022/08/28 11:40:16;;;;;;;6.28;3.17;;;23.60;60.40;;;;;;5109911;27;20219;-65
2022/08/28 11:42:47;;;;;;;5.38;3.20;;;23.80;58.90;;;;;;5107348;27;20086;-65
2022/08/28 11:45:40;;;;;;;6.43;2.83;;;23.90;59.30;;;;;;5104202;28;20055;-65
2022/08/28 11:48:06;;;;;;;8.07;3.10;;;24.10;57.80;;;;;;5104319;28;20519;-66
2022/08/28 11:51:26;;;;;;;7.55;3.78;;;24.40;58.70;;;;;;5106294;27;20032;-66
2022/08/28 11:54:21;;;;;;;10.27;3.25;;;24.50;56.60;;;;;;5104378;28;20047;-66
2022/08/28 11:56:52;;;;;;;6.93;3.38;;;24.70;57.30;;;;;;5076074;28;20079;-66
2022/08/28 11:59:44;;;;;;;5.88;3.22;;;24.60;56.60;;;;;;5106261;27;20450;-65
2022/08/28 12:02:38;;;;;;;7.38;3.70;;;24.90;56.50;;;;;;5095162;28;20052;-66
2022/08/28 12:05:16;;;;;;;5.72;3.10;;;25.00;55.90;;;;;;5109585;27;20047;-65
2022/08/28 12:07:48;;;;;;;11.10;3.95;;;24.60;56.50;;;;;;5105177;27;20047;-66
2022/08/28 12:10:23;;;;;;;9.05;3.55;;;24.50;58.30;;;;;;5110259;28;20032;-66
2022/08/28 12:12:54;;;;;;;7.97;3.60;;;24.60;56.40;;;;;;5107169;28;20058;-65
2022/08/28 12:15:26;;;;;;;8.82;3.97;;;24.80;56.80;;;;;;5103388;27;20510;-66
2022/08/28 12:17:56;;;;;;;7.60;3.60;;;24.90;53.90;;;;;;5089898;28;20055;-65
2022/08/28 12:20:58;;;;;;;8.25;4.30;;;24.90;54.80;;;;;;5106670;28;20040;-65
2022/08/28 12:23:41;;;;;;;5.78;3.17;;;24.80;55.80;;;;;;5063053;28;20063;-65
2022/08/28 12:26:21;;;;;;;10.10;3.28;;;24.80;55.70;;;;;;5103795;27;20043;-65
2022/08/28 12:29:00;;;;;;;7.10;2.75;;;24.90;56.50;;;;;;5100777;27;20081;-65
2022/08/28 12:34:41;;;;;;;10.00;4.15;;;25.20;54.80;;;;;;5090207;27;20466;-68
2022/08/28 12:37:24;;;;;;;6.38;3.22;;;25.20;55.20;;;;;;5108003;28;20059;-65
2022/08/28 12:39:50;;;;;;;6.00;3.53;;;24.90;53.00;;;;;;5086032;28;20101;-65
2022/08/28 12:42:18;;;;;;;13.05;3.50;;;24.80;54.60;;;;;;5107522;27;20073;-66
2022/08/28 12:44:45;;;;;;;12.93;4.40;;;25.00;55.00;;;;;;5106034;27;20101;-67
2022/08/28 12:47:21;;;;;;;8.35;3.22;;;25.20;54.50;;;;;;5093080;28;20396;-73
2022/08/28 12:49:47;;;;;;;6.22;3.58;;;25.40;53.40;;;;;;5090860;28;20044;-73
2022/08/28 12:52:20;;;;;;;9.70;4.50;;;25.40;53.60;;;;;;5112787;28;20831;-73
2022/08/28 12:54:48;;;;;;;10.85;4.45;;;25.20;53.20;;;;;;5112184;28;20068;-72
2022/08/28 12:57:18;;;;;;;;;;;24.90;54.00;;;;;;5111850;28;20051;-73
2022/08/28 12:59:49;;;;;;;17.17;4.65;;;24.80;53.10;;;;;;5090598;28;20399;-73
2022/08/28 13:02:25;;;;;;;8.13;4.05;;;24.40;54.00;;;;;;5109566;28;20055;-73
2022/08/28 13:04:54;;;;;;;7.73;3.23;;;24.50;54.60;;;;;;5109409;28;20071;-73
2022/08/28 13:07:26;;;;;;;11.38;4.10;;;24.40;54.60;;;;;;5105758;28;20053;-73
2022/08/28 13:09:54;;;;;;;10.13;4.82;;;24.40;54.10;;;;;;5106613;28;20055;-73
2022/08/28 13:12:29;;;;;;;10.73;3.67;;;24.30;54.30;;;;;;5107136;28;20047;-72
2022/08/28 13:14:54;;;;;;;12.15;3.88;;;24.40;54.50;;;;;;5106770;28;20050;-73